Time;durP1;ratioP1;P1;durP2;ratioP2;P2;SDS_P1;SDS_P2;PMS_P1;PMS_P2;Temp;Humidity;BMP_temperature;BMP_pressure;BME280_temperature;BME280_humidity;BME280_pressure;Samples;Min_cycle;Max_cycle;Signal;HPM_P1;HPM_P2
2023/04/12 00:00:44;;;;;;;7.60;3.40;;;7.60;61.00;;;;;;5064383;27;115332;-83
2023/04/12 00:03:11;;;;;;;7.90;3.13;;;7.60;60.90;;;;;;5064593;27;115485;-84
2023/04/12 00:05:46;;;;;;;5.28;3.10;;;7.60;61.00;;;;;;5054525;27;114297;-84
2023/04/12 00:08:13;;;;;;;;;;;7.60;60.90;;;;;;5038708;27;117872;-84
2023/04/12 00:10:40;;;;;;;6.70;3.55;;;7.50;61.10;;;;;;5040909;27;116810;-84
2023/04/12 00:13:07;;;;;;;6.90;2.80;;;7.40;61.40;;;;;;5042404;27;114658;-84
2023/04/12 00:15:38;;;;;;;5.50;2.70;;;7.50;61.30;;;;;;5032764;27;114314;-84
2023/04/12 00:18:05;;;;;;;4.80;3.30;;;7.50;61.30;;;;;;5041236;27;114404;-84
2023/04/12 00:20:32;;;;;;;4.70;2.80;;;7.50;61.30;;;;;;5047540;27;114937;-83
2023/04/12 00:23:01;;;;;;;5.70;3.10;;;7.50;61.20;;;;;;5027013;27;114632;-82
2023/04/12 00:25:28;;;;;;;6.53;3.20;;;7.50;61.20;;;;;;5049554;27;117321;-82
2023/04/12 00:27:55;;;;;;;6.82;3.05;;;7.50;61.10;;;;;;5051086;27;115568;-84
2023/04/12 00:30:22;;;;;;;7.00;3.00;;;7.50;61.30;;;;;;5046718;27;115602;-84
2023/04/12 00:32:50;;;;;;;6.03;3.10;;;7.50;61.10;;;;;;5063740;27;116434;-84
2023/04/12 00:35:18;;;;;;;5.65;3.42;;;7.50;61.00;;;;;;5065926;27;114455;-85
2023/04/12 00:37:46;;;;;;;6.63;2.97;;;7.50;61.10;;;;;;5065899;27;114402;-84
2023/04/12 00:40:13;;;;;;;6.03;3.33;;;7.50;61.00;;;;;;5063434;27;117612;-84
2023/04/12 00:42:40;;;;;;;5.53;3.38;;;7.50;61.00;;;;;;5063537;27;114756;-83
2023/04/12 00:45:08;;;;;;;6.03;3.50;;;7.50;61.00;;;;;;5065825;27;114622;-83
2023/04/12 00:47:39;;;;;;;6.30;3.08;;;7.50;61.00;;;;;;5065397;27;116938;-83
2023/04/12 00:50:07;;;;;;;7.07;3.47;;;7.50;61.20;;;;;;5062718;27;116185;-84
2023/04/12 00:52:34;;;;;;;7.22;3.80;;;7.40;61.10;;;;;;5064667;27;114647;-83
2023/04/12 00:55:06;;;;;;;7.63;3.90;;;7.50;61.20;;;;;;5068136;27;114326;-84
2023/04/12 00:57:37;;;;;;;6.35;3.45;;;7.50;61.10;;;;;;5067987;27;114573;-84
2023/04/12 01:00:07;;;;;;;6.55;3.30;;;7.40;61.20;;;;;;5052552;27;115049;-84
2023/04/12 01:02:37;;;;;;;6.25;3.53;;;7.50;61.20;;;;;;5045950;27;114600;-84
2023/04/12 01:05:05;;;;;;;6.40;3.67;;;7.50;61.10;;;;;;5047047;27;117223;-84
2023/04/12 01:07:50;;;;;;;6.40;3.42;;;7.50;61.10;;;;;;5013904;27;114402;-84
2023/04/12 01:10:32;;;;;;;5.97;3.83;;;7.50;61.20;;;;;;5011913;27;117640;-83
2023/04/12 01:13:08;;;;;;;6.90;3.78;;;7.50;61.10;;;;;;5050920;27;116630;-84
2023/04/12 01:15:38;;;;;;;8.73;4.72;;;7.50;61.20;;;;;;5065766;27;114197;-84
2023/04/12 01:18:13;;;;;;;11.13;4.88;;;7.50;61.40;;;;;;5037941;27;114389;-84
2023/04/12 01:20:47;;;;;;;8.95;4.07;;;7.50;61.30;;;;;;5011241;27;115001;-84
2023/04/12 01:23:40;;;;;;;8.15;3.90;;;7.50;61.20;;;;;;5015505;27;114661;-85
2023/04/12 01:26:31;;;;;;;6.38;3.47;;;7.60;60.90;;;;;;5048949;27;114261;-85
2023/04/12 01:29:02;;;;;;;6.32;3.40;;;7.50;60.90;;;;;;5050913;27;116273;-83
2023/04/12 01:31:29;;;;;;;7.00;3.67;;;7.40;61.00;;;;;;5067644;27;114334;-84
2023/04/12 01:33:57;;;;;;;5.90;3.42;;;7.40;61.00;;;;;;5067562;27;114779;-84
2023/04/12 01:36:26;;;;;;;5.57;3.10;;;7.40;61.20;;;;;;5051831;27;114551;-83
2023/04/12 01:38:53;;;;;;;6.55;3.50;;;7.40;61.10;;;;;;5058733;27;114329;-85
2023/04/12 01:41:20;;;;;;;6.85;3.90;;;7.40;61.00;;;;;;5048486;27;114936;-85
2023/04/12 01:43:47;;;;;;;6.32;3.35;;;7.50;60.90;;;;;;5025703;27;117102;-85
2023/04/12 01:46:15;;;;;;;6.57;3.63;;;7.40;61.10;;;;;;5048800;27;114679;-84
2023/04/12 01:48:51;;;;;;;7.88;3.75;;;7.40;60.80;;;;;;5047670;27;114788;-85
2023/04/12 01:52:03;;;;;;;7.18;3.72;;;7.40;60.90;;;;;;5046199;27;115160;-85
2023/04/12 01:54:33;;;;;;;6.63;3.60;;;7.40;60.90;;;;;;4974191;28;114679;-84
2023/04/12 01:57:01;;;;;;;6.13;3.72;;;7.30;60.90;;;;;;4953961;28;114612;-84
2023/04/12 01:59:35;;;;;;;5.85;3.33;;;7.30;60.90;;;;;;4983514;27;114728;-84
2023/04/12 02:02:03;;;;;;;8.70;3.50;;;7.40;60.50;;;;;;5065089;27;114867;-85
2023/04/12 02:04:33;;;;;;;5.82;3.30;;;7.30;60.70;;;;;;5035431;27;117316;-84
2023/04/12 02:07:01;;;;;;;6.00;3.80;;;7.40;60.60;;;;;;5014168;27;114488;-83
2023/04/12 02:09:37;;;;;;;5.43;3.45;;;7.40;60.60;;;;;;5030508;27;114373;-85
2023/04/12 02:12:27;;;;;;;9.13;5.00;;;7.30;60.40;;;;;;5013428;27;115028;-84
2023/04/12 02:14:59;;;;;;;6.43;3.60;;;7.40;60.10;;;;;;5047037;27;114930;-83
2023/04/12 02:17:28;;;;;;;8.65;4.00;;;7.30;60.30;;;;;;5046775;27;118050;-83
2023/04/12 02:19:56;;;;;;;6.63;3.50;;;7.20;60.20;;;;;;5046959;27;114530;-83
2023/04/12 02:22:23;;;;;;;6.45;3.90;;;7.20;60.30;;;;;;5045414;27;117447;-83
2023/04/12 02:24:50;;;;;;;6.90;3.30;;;7.20;60.30;;;;;;5047113;27;114723;-83
2023/04/12 02:27:18;;;;;;;7.40;3.72;;;7.20;60.30;;;;;;5046395;27;114472;-84
2023/04/12 02:29:45;;;;;;;6.97;3.75;;;7.20;60.40;;;;;;5050782;27;118173;-84
2023/04/12 02:32:15;;;;;;;7.45;3.58;;;7.20;60.30;;;;;;5066799;27;115487;-83
2023/04/12 02:34:43;;;;;;;6.18;3.50;;;7.20;60.30;;;;;;5049074;27;118000;-84
2023/04/12 02:37:20;;;;;;;8.30;3.53;;;7.20;60.10;;;;;;5051665;27;114326;-83
2023/04/12 02:39:48;;;;;;;6.43;3.28;;;7.10;60.20;;;;;;5051676;27;114237;-83
2023/04/12 02:42:16;;;;;;;7.20;3.20;;;7.10;60.20;;;;;;5050679;27;114978;-86
2023/04/12 02:44:46;;;;;;;5.57;3.22;;;7.10;60.30;;;;;;5050439;27;114280;-84
2023/04/12 02:47:14;;;;;;;7.85;3.15;;;7.10;60.30;;;;;;5050381;27;114585;-83
2023/04/12 02:49:45;;;;;;;7.75;3.88;;;7.10;60.30;;;;;;5067553;27;114313;-85
2023/04/12 02:52:15;;;;;;;7.95;4.47;;;7.10;60.30;;;;;;5065895;27;114843;-84
2023/04/12 02:55:06;;;;;;;7.72;4.00;;;7.00;60.20;;;;;;5065942;27;115282;-84
2023/04/12 02:57:34;;;;;;;10.40;3.83;;;7.00;60.30;;;;;;5055203;27;114313;-83
2023/04/12 03:00:14;;;;;;;9.25;4.15;;;6.90;60.30;;;;;;5068863;27;114257;-84
2023/04/12 03:02:49;;;;;;;8.30;3.87;;;6.90;60.30;;;;;;5069681;27;116201;-85
2023/04/12 03:05:22;;;;;;;7.60;3.80;;;6.90;60.40;;;;;;5072855;27;114127;-85
2023/04/12 03:07:50;;;;;;;7.60;3.83;;;6.90;60.30;;;;;;5057839;27;115672;-85
2023/04/12 03:10:22;;;;;;;9.35;3.95;;;6.90;60.40;;;;;;5069726;27;114311;-84
2023/04/12 03:12:58;;;;;;;7.63;3.63;;;6.90;60.40;;;;;;5039862;27;117398;-84
2023/04/12 03:15:32;;;;;;;8.02;3.92;;;6.90;60.30;;;;;;5045967;27;114650;-83
2023/04/12 03:18:00;;;;;;;7.40;3.80;;;6.90;60.40;;;;;;5045552;27;114300;-82
2023/04/12 03:20:32;;;;;;;6.70;3.72;;;7.00;60.40;;;;;;5046729;27;114557;-83
2023/04/12 03:23:05;;;;;;;6.32;3.58;;;7.00;60.40;;;;;;5029384;27;114943;-83
2023/04/12 03:25:38;;;;;;;9.25;3.58;;;7.00;60.30;;;;;;5044961;27;121188;-83
2023/04/12 03:28:25;;;;;;;6.03;3.78;;;7.00;60.20;;;;;;5017984;27;118347;-84
2023/04/12 03:30:53;;;;;;;8.30;4.35;;;7.00;60.20;;;;;;5046689;27;116954;-83
2023/04/12 03:33:26;;;;;;;7.90;4.18;;;7.00;60.10;;;;;;5045886;27;115307;-84
2023/04/12 03:36:00;;;;;;;8.45;5.00;;;7.00;59.90;;;;;;5010255;27;117709;-83
2023/04/12 03:38:30;;;;;;;7.20;4.80;;;7.00;59.90;;;;;;5045721;27;114378;-83
2023/04/12 03:40:58;;;;;;;8.23;4.50;;;7.10;59.70;;;;;;5031112;27;114370;-85
2023/04/12 03:43:36;;;;;;;9.27;5.20;;;7.00;59.80;;;;;;5049144;27;115142;-84
2023/04/12 03:46:10;;;;;;;7.80;4.55;;;7.00;59.90;;;;;;5051908;27;115398;-84
2023/04/12 03:48:37;;;;;;;7.60;4.78;;;7.00;59.80;;;;;;5029175;27;114306;-85
2023/04/12 03:51:06;;;;;;;10.65;4.85;;;7.00;59.80;;;;;;5045272;27;114532;-84
2023/04/12 03:53:39;;;;;;;10.10;5.28;;;7.00;60.10;;;;;;5064704;27;114955;-84
2023/04/12 03:56:11;;;;;;;8.43;5.50;;;7.10;59.80;;;;;;5064565;27;115090;-85
2023/04/12 03:58:40;;;;;;;7.88;4.47;;;7.10;59.60;;;;;;5065689;27;114725;-84
2023/04/12 04:01:08;;;;;;;6.72;4.07;;;7.10;59.80;;;;;;5063681;27;114215;-87
2023/04/12 04:03:36;;;;;;;9.85;4.85;;;7.10;59.80;;;;;;5044605;27;115563;-84
2023/04/12 04:06:17;;;;;;;6.57;3.83;;;7.10;59.60;;;;;;5027012;27;116138;-85
2023/04/12 04:08:44;;;;;;;7.60;5.07;;;7.10;59.50;;;;;;5045301;27;117158;-84
2023/04/12 04:11:12;;;;;;;12.10;4.43;;;7.10;59.60;;;;;;5045837;27;114247;-84
2023/04/12 04:13:45;;;;;;;10.82;4.80;;;7.10;59.50;;;;;;5027889;27;115062;-85
2023/04/12 04:16:17;;;;;;;7.90;4.80;;;7.20;59.50;;;;;;5064438;27;114716;-84
2023/04/12 04:18:45;;;;;;;11.13;5.28;;;7.10;59.50;;;;;;5065855;27;114286;-83
2023/04/12 04:21:14;;;;;;;7.72;4.78;;;7.10;59.50;;;;;;5065988;27;114325;-84
2023/04/12 04:23:44;;;;;;;8.48;4.60;;;7.10;59.30;;;;;;5047650;27;118474;-83
2023/04/12 04:26:12;;;;;;;8.95;4.90;;;7.10;59.40;;;;;;5031483;27;114602;-83
2023/04/12 04:28:49;;;;;;;8.52;4.97;;;7.20;59.30;;;;;;5042881;27;114362;-83
2023/04/12 04:31:21;;;;;;;9.02;5.18;;;7.10;59.30;;;;;;5047585;27;114588;-84
2023/04/12 04:33:49;;;;;;;11.23;5.70;;;7.10;59.30;;;;;;5046291;27;115125;-84
2023/04/12 04:36:20;;;;;;;10.25;5.03;;;7.10;59.30;;;;;;5045460;27;114604;-84
2023/04/12 04:38:52;;;;;;;12.73;5.15;;;7.10;59.30;;;;;;5047595;27;116834;-85
2023/04/12 04:41:38;;;;;;;8.85;4.55;;;7.10;59.40;;;;;;5047642;27;114507;-85
2023/04/12 04:44:10;;;;;;;7.53;3.97;;;7.10;59.20;;;;;;5028789;27;118199;-85
2023/04/12 04:46:47;;;;;;;7.45;4.32;;;7.10;59.00;;;;;;5036001;27;115186;-85
2023/04/12 04:49:16;;;;;;;9.82;4.50;;;7.00;59.00;;;;;;5066840;27;114225;-85
2023/04/12 04:51:43;;;;;;;7.85;3.95;;;7.00;59.20;;;;;;5048592;27;116242;-85
2023/04/12 04:54:12;;;;;;;6.95;3.85;;;7.00;59.00;;;;;;5045466;27;115951;-83
2023/04/12 04:56:41;;;;;;;9.70;5.03;;;6.90;59.10;;;;;;5044766;27;115361;-84
2023/04/12 04:59:09;;;;;;;5.55;3.70;;;7.00;59.30;;;;;;5047237;27;114305;-84
2023/04/12 05:01:37;;;;;;;6.72;3.95;;;7.00;59.20;;;;;;5047180;27;114911;-84
2023/04/12 05:04:05;;;;;;;9.50;4.18;;;6.90;59.10;;;;;;5029534;27;116091;-84
2023/04/12 05:06:33;;;;;;;7.53;3.97;;;6.90;59.10;;;;;;5013556;27;115087;-84
2023/04/12 05:09:01;;;;;;;8.95;4.50;;;6.90;59.20;;;;;;5052337;27;114294;-84
2023/04/12 05:11:36;;;;;;;9.40;4.32;;;6.90;59.50;;;;;;5047998;27;118336;-85
2023/04/12 05:14:08;;;;;;;7.45;4.28;;;6.90;59.30;;;;;;5045340;27;116059;-85
2023/04/12 05:16:38;;;;;;;7.85;3.72;;;6.90;59.30;;;;;;5051670;27;114668;-84
2023/04/12 05:19:12;;;;;;;9.18;4.05;;;6.90;59.10;;;;;;5046925;27;114393;-85
2023/04/12 05:21:40;;;;;;;9.00;4.45;;;6.90;59.00;;;;;;5058442;27;114514;-84
2023/04/12 05:24:07;;;;;;;8.80;4.20;;;6.90;59.00;;;;;;5032007;27;114597;-83
2023/04/12 05:26:36;;;;;;;10.70;4.38;;;6.90;59.30;;;;;;5029044;27;115218;-84
2023/04/12 05:29:12;;;;;;;8.23;3.88;;;6.90;59.40;;;;;;5045547;27;114594;-84
2023/04/12 05:31:41;;;;;;;6.18;3.63;;;6.90;59.30;;;;;;5027485;27;114833;-85
2023/04/12 05:34:15;;;;;;;7.97;4.30;;;6.90;59.30;;;;;;5028473;27;116076;-85
2023/04/12 05:36:54;;;;;;;6.88;4.20;;;6.90;59.10;;;;;;5046032;27;114764;-84
2023/04/12 05:39:24;;;;;;;8.73;4.32;;;6.90;59.10;;;;;;5031956;27;116586;-85
2023/04/12 05:41:55;;;;;;;12.32;6.03;;;6.90;59.20;;;;;;5013384;27;115084;-85
2023/04/12 05:44:24;;;;;;;10.38;6.28;;;6.90;59.00;;;;;;5045778;27;114983;-86
2023/04/12 05:46:55;;;;;;;11.02;8.48;;;6.90;59.10;;;;;;5021483;27;117590;-83
2023/04/12 05:49:24;;;;;;;16.45;9.57;;;6.90;59.20;;;;;;5013585;27;114628;-86
2023/04/12 05:51:55;;;;;;;8.98;6.18;;;6.90;59.20;;;;;;5030557;27;114522;-84
2023/04/12 05:54:24;;;;;;;8.48;5.93;;;7.00;59.00;;;;;;5044848;27;114914;-84
2023/04/12 05:56:56;;;;;;;10.50;7.60;;;7.00;58.90;;;;;;5031109;27;114650;-84
2023/04/12 05:59:23;;;;;;;10.43;7.15;;;6.90;58.60;;;;;;5047800;27;116075;-84
2023/04/12 06:01:50;;;;;;;11.70;5.70;;;6.90;58.70;;;;;;5029877;27;114607;-84
2023/04/12 06:04:20;;;;;;;10.80;6.05;;;6.90;58.60;;;;;;5043840;27;114913;-84
2023/04/12 06:06:47;;;;;;;9.52;6.10;;;6.80;58.70;;;;;;5027586;27;117759;-84
2023/04/12 06:09:14;;;;;;;11.95;7.20;;;6.80;58.80;;;;;;5030134;27;114277;-85
2023/04/12 06:11:42;;;;;;;9.00;5.47;;;6.80;58.90;;;;;;5048412;27;114575;-84
2023/04/12 06:14:10;;;;;;;10.77;5.22;;;6.80;58.80;;;;;;5043763;27;115175;-85
2023/04/12 06:16:37;;;;;;;10.30;6.20;;;6.80;58.80;;;;;;5035040;27;114848;-84
2023/04/12 06:19:07;;;;;;;10.93;7.13;;;6.80;58.80;;;;;;5066636;27;114580;-85
2023/04/12 06:21:34;;;;;;;12.48;8.02;;;6.70;58.90;;;;;;5066309;27;117815;-84
2023/04/12 06:24:02;;;;;;;9.70;7.13;;;6.80;59.00;;;;;;5047080;27;115348;-85
2023/04/12 06:26:34;;;;;;;7.50;5.13;;;6.80;59.20;;;;;;5048029;27;120092;-84
2023/04/12 06:29:06;;;;;;;9.77;4.85;;;6.80;58.90;;;;;;5051095;27;114462;-85
2023/04/12 06:31:39;;;;;;;10.15;6.60;;;6.70;59.00;;;;;;5036435;27;114803;-84
2023/04/12 06:34:06;;;;;;;10.90;6.55;;;6.80;59.00;;;;;;5055175;27;114919;-84
2023/04/12 06:36:38;;;;;;;11.90;5.28;;;6.70;59.10;;;;;;5058158;27;117817;-84
2023/04/12 06:39:07;;;;;;;9.93;4.90;;;6.80;58.90;;;;;;5067324;27;114373;-85
2023/04/12 06:41:34;;;;;;;11.68;4.65;;;6.70;58.90;;;;;;5069452;27;114467;-86
2023/04/12 06:44:02;;;;;;;7.72;4.00;;;6.70;59.30;;;;;;5068924;27;115167;-85
2023/04/12 06:46:29;;;;;;;7.55;4.47;;;6.80;59.00;;;;;;5066041;27;116649;-86
2023/04/12 06:48:58;;;;;;;13.00;5.50;;;6.80;59.00;;;;;;5032043;27;117096;-85
2023/04/12 06:51:27;;;;;;;9.07;5.07;;;6.70;59.10;;;;;;5047534;27;114244;-83
2023/04/12 06:53:56;;;;;;;9.32;5.75;;;6.80;59.00;;;;;;5045525;27;114787;-85
2023/04/12 06:56:24;;;;;;;11.85;4.60;;;6.80;58.90;;;;;;5046606;27;114701;-84
2023/04/12 06:58:51;;;;;;;10.45;4.47;;;6.90;59.10;;;;;;5048427;27;116553;-83
2023/04/12 07:01:18;;;;;;;7.80;4.25;;;6.80;58.80;;;;;;5049231;27;114490;-86
2023/04/12 07:03:45;;;;;;;10.55;4.90;;;6.80;58.90;;;;;;5047913;27;115552;-86
2023/04/12 07:06:12;;;;;;;9.85;4.97;;;6.80;59.20;;;;;;5045510;27;116982;-83
2023/04/12 07:08:51;;;;;;;10.57;5.28;;;6.80;59.20;;;;;;5049325;27;118468;-84
2023/04/12 07:11:21;;;;;;;14.95;5.90;;;6.90;59.20;;;;;;5060199;27;114742;-85
2023/04/12 07:13:50;;;;;;;13.55;5.57;;;7.00;59.10;;;;;;5048013;27;115612;-83
2023/04/12 07:16:17;;;;;;;9.93;5.10;;;7.00;58.90;;;;;;5046415;27;114957;-84
2023/04/12 07:18:47;;;;;;;9.63;5.45;;;7.10;58.90;;;;;;5045932;27;114599;-84
2023/04/12 07:21:16;;;;;;;9.90;5.25;;;7.10;58.90;;;;;;5046238;27;114767;-84
2023/04/12 07:23:43;;;;;;;10.00;5.70;;;7.20;58.80;;;;;;5043333;27;114894;-85
2023/04/12 07:26:13;;;;;;;13.00;6.93;;;7.20;58.90;;;;;;5043426;27;114673;-85
2023/04/12 07:28:40;;;;;;;15.32;11.10;;;7.30;59.00;;;;;;5046490;27;115539;-85
2023/04/12 07:31:07;;;;;;;13.18;8.05;;;7.40;58.90;;;;;;5044385;27;115008;-85
2023/04/12 07:33:36;;;;;;;15.43;9.98;;;7.50;58.40;;;;;;5067532;27;117862;-84
2023/04/12 07:36:06;;;;;;;16.65;9.20;;;7.50;58.40;;;;;;5056757;27;114753;-83
2023/04/12 07:38:36;;;;;;;16.63;10.10;;;7.60;58.00;;;;;;5052911;27;115665;-83
2023/04/12 07:41:04;;;;;;;14.80;9.40;;;7.70;58.10;;;;;;5062896;27;114451;-85
2023/04/12 07:43:32;;;;;;;21.77;10.23;;;7.70;58.20;;;;;;5065481;27;115011;-85
2023/04/12 07:46:03;;;;;;;13.52;9.18;;;7.80;58.30;;;;;;5038232;27;114700;-85
2023/04/12 07:48:30;;;;;;;15.45;9.60;;;7.90;58.00;;;;;;5066823;27;114987;-85
2023/04/12 07:50:57;;;;;;;15.23;9.45;;;8.00;57.70;;;;;;5059170;27;114561;-83
2023/04/12 07:53:26;;;;;;;13.25;9.07;;;8.10;57.60;;;;;;5044200;27;117954;-84
2023/04/12 07:55:54;;;;;;;13.82;8.73;;;8.20;57.40;;;;;;5034332;27;114757;-84
2023/04/12 07:58:23;;;;;;;13.98;8.35;;;8.30;57.20;;;;;;5028491;27;114289;-83
2023/04/12 08:00:52;;;;;;;18.08;9.55;;;8.40;57.00;;;;;;5044759;27;114742;-86
2023/04/12 08:03:23;;;;;;;14.80;8.73;;;8.50;56.70;;;;;;5045124;27;114968;-85
2023/04/12 08:05:54;;;;;;;14.02;7.68;;;8.60;56.30;;;;;;5060563;27;115132;-84
2023/04/12 08:08:21;;;;;;;11.02;7.53;;;8.70;56.10;;;;;;5060500;27;117685;-85
2023/04/12 08:10:50;;;;;;;11.75;7.05;;;8.80;56.20;;;;;;5052323;27;114371;-84
2023/04/12 08:13:50;;;;;;;10.50;5.68;;;8.90;55.50;;;;;;5064079;27;114968;-83
2023/04/12 08:16:19;;;;;;;10.82;6.05;;;9.10;54.40;;;;;;5052882;27;114716;-83
2023/04/12 08:18:48;;;;;;;11.32;7.75;;;9.00;54.50;;;;;;5054991;27;114274;-83
2023/04/12 08:21:18;;;;;;;10.88;7.05;;;9.00;54.30;;;;;;5056776;27;116345;-84
2023/04/12 08:23:45;;;;;;;10.70;7.18;;;9.00;54.40;;;;;;5038370;27;115694;-83
2023/04/12 08:26:12;;;;;;;11.23;7.05;;;9.10;54.40;;;;;;5063139;27;116696;-82
2023/04/12 08:28:39;;;;;;;9.48;5.75;;;9.10;54.60;;;;;;5066613;27;114804;-85
2023/04/12 08:31:07;;;;;;;10.60;5.60;;;9.10;53.50;;;;;;5063659;27;115314;-83
2023/04/12 08:33:35;;;;;;;8.15;5.80;;;9.10;53.80;;;;;;5031495;27;116981;-83
2023/04/12 08:36:09;;;;;;;11.02;5.85;;;9.10;54.00;;;;;;5057601;27;114720;-83
2023/04/12 08:38:36;;;;;;;11.48;6.63;;;9.20;53.60;;;;;;5018427;27;114466;-85
2023/04/12 08:41:12;;;;;;;12.13;6.90;;;9.20;53.50;;;;;;5032701;27;114577;-85
2023/04/12 08:43:46;;;;;;;11.32;7.65;;;9.20;53.90;;;;;;5068657;27;120323;-84
2023/04/12 08:46:16;;;;;;;12.98;8.13;;;9.30;53.90;;;;;;5067654;27;115297;-83
2023/04/12 08:48:46;;;;;;;13.13;6.97;;;9.30;53.30;;;;;;5057246;27;114610;-84
2023/04/12 08:51:18;;;;;;;10.45;6.00;;;9.40;53.20;;;;;;5033243;27;117845;-84
2023/04/12 08:53:45;;;;;;;9.52;5.65;;;9.40;53.10;;;;;;5049978;27;115480;-83
2023/04/12 08:56:13;;;;;;;12.50;7.00;;;9.40;52.80;;;;;;4998932;27;117357;-83
2023/04/12 08:58:47;;;;;;;9.73;5.63;;;9.50;52.50;;;;;;5048843;27;114689;-84
2023/04/12 09:01:15;;;;;;;10.38;5.63;;;9.40;51.60;;;;;;5033082;27;114591;-84
2023/04/12 09:03:43;;;;;;;10.10;5.80;;;9.50;51.80;;;;;;5047601;27;114921;-83
2023/04/12 09:06:13;;;;;;;10.70;6.10;;;9.50;51.80;;;;;;5031621;27;116933;-84
2023/04/12 09:08:55;;;;;;;11.00;6.80;;;9.50;51.60;;;;;;5051613;27;114534;-84
2023/04/12 09:11:29;;;;;;;12.82;6.88;;;9.50;51.30;;;;;;5049898;27;114471;-83
2023/04/12 09:13:56;;;;;;;11.90;6.15;;;9.50;51.20;;;;;;5047478;27;116814;-84
2023/04/12 09:16:34;;;;;;;9.30;6.35;;;9.50;51.60;;;;;;5047002;27;114637;-83
2023/04/12 09:19:03;;;;;;;8.57;5.00;;;9.70;51.20;;;;;;5048170;27;114438;-83
2023/04/12 09:21:33;;;;;;;10.45;6.20;;;9.80;51.30;;;;;;5034855;27;114626;-82
2023/04/12 09:24:08;;;;;;;8.80;4.55;;;10.10;50.90;;;;;;5054464;27;115219;-83
2023/04/12 09:26:40;;;;;;;9.18;5.95;;;10.30;50.40;;;;;;5049694;27;114710;-83
2023/04/12 09:29:30;;;;;;;10.90;6.53;;;10.60;49.90;;;;;;5047964;27;114738;-83
2023/04/12 09:32:06;;;;;;;10.35;6.22;;;10.90;49.90;;;;;;5051653;27;114472;-83
2023/04/12 09:34:34;;;;;;;10.10;5.63;;;11.10;49.10;;;;;;5046751;27;115018;-83
2023/04/12 09:37:15;;;;;;;8.77;4.70;;;11.20;48.50;;;;;;5048298;27;115156;-84
2023/04/12 09:39:42;;;;;;;8.15;5.20;;;11.30;47.90;;;;;;5047374;27;115137;-83
2023/04/12 09:42:10;;;;;;;8.38;4.53;;;11.20;48.10;;;;;;5049113;27;114302;-83
2023/04/12 09:44:57;;;;;;;7.47;4.30;;;11.20;48.30;;;;;;5048313;27;115148;-82
2023/04/12 09:47:37;;;;;;;6.22;4.07;;;11.20;48.20;;;;;;5048040;27;114751;-83
2023/04/12 09:50:08;;;;;;;7.85;4.72;;;11.30;47.70;;;;;;5044858;27;114682;-83
2023/04/12 09:52:37;;;;;;;7.22;4.90;;;11.20;47.60;;;;;;5016439;27;114271;-81
2023/04/12 09:55:09;;;;;;;8.18;4.32;;;11.20;47.10;;;;;;5031309;27;116228;-83
2023/04/12 09:57:45;;;;;;;6.20;3.60;;;11.20;46.90;;;;;;5049018;27;114698;-83
2023/04/12 10:00:18;;;;;;;5.60;3.40;;;11.10;47.20;;;;;;5032132;27;114274;-82
2023/04/12 10:02:50;;;;;;;8.43;3.90;;;11.00;47.40;;;;;;5048072;27;114389;-83
2023/04/12 10:05:20;;;;;;;4.60;3.42;;;10.90;47.10;;;;;;5067202;27;115433;-83
2023/04/12 10:07:49;;;;;;;6.47;4.30;;;10.80;47.40;;;;;;5067113;27;114604;-84
2023/04/12 10:10:20;;;;;;;5.55;3.72;;;10.80;47.70;;;;;;5035561;27;114349;-84
2023/04/12 10:12:48;;;;;;;6.35;3.90;;;10.80;47.40;;;;;;5070600;27;114636;-84
2023/04/12 10:15:20;;;;;;;7.10;3.60;;;10.80;47.50;;;;;;5075131;27;114904;-83
2023/04/12 10:17:56;;;;;;;5.18;3.78;;;10.80;47.80;;;;;;5059007;27;114893;-85
2023/04/12 10:20:25;;;;;;;7.68;4.72;;;10.80;47.70;;;;;;5050519;27;114422;-83
2023/04/12 10:22:56;;;;;;;7.35;4.35;;;10.80;47.10;;;;;;5048673;27;114396;-84
2023/04/12 10:25:30;;;;;;;9.45;4.90;;;10.70;47.20;;;;;;5047092;27;114866;-85
2023/04/12 10:28:16;;;;;;;10.68;5.20;;;10.70;47.50;;;;;;5013602;27;114808;-85
2023/04/12 10:30:44;;;;;;;7.80;4.32;;;10.70;47.60;;;;;;5047793;27;116730;-84
2023/04/12 10:33:12;;;;;;;5.82;4.40;;;10.80;46.90;;;;;;5030972;27;114468;-84
2023/04/12 10:36:05;;;;;;;6.88;5.10;;;10.80;46.80;;;;;;5063331;27;115004;-85
2023/04/12 10:38:48;;;;;;;10.10;4.57;;;10.80;46.50;;;;;;5031781;27;114773;-86
2023/04/12 10:41:18;;;;;;;8.20;4.20;;;10.80;46.50;;;;;;5037824;27;114844;-85
2023/04/12 10:43:51;;;;;;;7.68;4.10;;;10.90;46.50;;;;;;5043964;27;114710;-85
2023/04/12 10:46:39;;;;;;;7.50;4.15;;;10.90;46.30;;;;;;5030997;27;115054;-85
2023/04/12 10:49:10;;;;;;;9.43;4.45;;;11.10;46.70;;;;;;5048355;27;114581;-85
2023/04/12 10:51:38;;;;;;;6.35;3.92;;;11.20;46.80;;;;;;5015226;27;115125;-85
2023/04/12 10:54:16;;;;;;;6.93;4.00;;;11.20;46.20;;;;;;5007074;27;114518;-85
2023/04/12 10:56:43;;;;;;;;;;;11.20;46.10;;;;;;5049435;27;115205;-85
2023/04/12 10:59:53;;;;;;;7.95;4.30;;;11.10;47.30;;;;;;5019435;27;114751;-84
2023/04/12 11:02:20;;;;;;;7.97;3.67;;;11.00;46.80;;;;;;5045216;27;119496;-83
2023/04/12 11:05:08;;;;;;;6.00;4.25;;;10.90;46.10;;;;;;5034801;27;114330;-85
2023/04/12 11:07:52;;;;;;;8.13;4.60;;;10.90;46.50;;;;;;5019567;27;115459;-85
2023/04/12 11:10:38;;;;;;;7.15;4.25;;;10.90;46.70;;;;;;5014331;27;118198;-85
2023/04/12 11:13:08;;;;;;;4.78;3.50;;;10.90;46.70;;;;;;4998814;27;114406;-84
2023/04/12 11:15:37;;;;;;;7.43;4.00;;;10.90;46.20;;;;;;5033960;27;114311;-84
2023/04/12 11:18:10;;;;;;;5.90;3.35;;;11.10;46.10;;;;;;5043902;27;115405;-84
2023/04/12 11:20:42;;;;;;;4.85;3.35;;;11.20;46.30;;;;;;5036871;27;115920;-85
2023/04/12 11:23:09;;;;;;;6.22;3.30;;;11.40;45.40;;;;;;5016040;27;114473;-86
2023/04/12 11:25:37;;;;;;;7.03;3.28;;;11.60;44.90;;;;;;4996706;27;115729;-86
2023/04/12 11:28:06;;;;;;;5.95;3.30;;;11.60;44.30;;;;;;4995721;27;117909;-86
2023/04/12 11:30:56;;;;;;;7.50;3.50;;;11.70;44.10;;;;;;5003700;27;115532;-86
2023/04/12 11:33:37;;;;;;;6.22;3.30;;;11.70;43.90;;;;;;4998583;27;116930;-86
2023/04/12 11:36:11;;;;;;;6.80;3.63;;;11.80;43.90;;;;;;5005729;27;114632;-86
2023/04/12 11:38:39;;;;;;;6.35;3.90;;;11.80;43.90;;;;;;5046153;27;115581;-84
2023/04/12 11:41:07;;;;;;;4.72;3.38;;;11.80;43.50;;;;;;5057990;27;117465;-84
2023/04/12 11:43:37;;;;;;;5.78;3.58;;;11.70;43.50;;;;;;5029479;27;114666;-86
2023/04/12 11:46:04;;;;;;;6.50;3.88;;;11.70;43.50;;;;;;5029486;27;114570;-85
2023/04/12 11:48:33;;;;;;;5.40;3.20;;;11.70;44.10;;;;;;5019133;27;115454;-87
2023/04/12 11:51:20;;;;;;;5.25;3.75;;;11.70;44.20;;;;;;5017998;27;115262;-85
2023/04/12 11:53:54;;;;;;;6.22;3.80;;;11.70;44.10;;;;;;5040040;27;114593;-86
2023/04/12 11:56:22;;;;;;;4.70;3.00;;;11.70;43.60;;;;;;5053691;27;114226;-86
2023/04/12 11:58:50;;;;;;;7.15;3.53;;;11.60;43.70;;;;;;5048270;27;114860;-84
2023/04/12 12:01:21;;;;;;;5.18;3.60;;;11.60;43.50;;;;;;5021543;27;115844;-86
2023/04/12 12:03:49;;;;;;;7.47;3.38;;;11.70;43.20;;;;;;5000508;27;114653;-84
2023/04/12 12:06:16;;;;;;;6.07;3.55;;;11.70;42.90;;;;;;5038142;27;114339;-87
2023/04/12 12:08:44;;;;;;;5.60;3.40;;;11.70;43.20;;;;;;5043982;27;116005;-85
2023/04/12 12:11:12;;;;;;;4.95;3.38;;;11.70;43.40;;;;;;5051328;27;117822;-85
2023/04/12 12:13:53;;;;;;;5.82;3.40;;;11.80;43.00;;;;;;5010902;27;117404;-85
2023/04/12 12:16:27;;;;;;;8.10;3.58;;;11.90;42.60;;;;;;5029655;27;114784;-85
2023/04/12 12:18:56;;;;;;;5.20;3.30;;;12.00;42.40;;;;;;5001058;27;119127;-86
2023/04/12 12:21:26;;;;;;;4.85;3.15;;;12.00;41.90;;;;;;5010314;27;118753;-84
2023/04/12 12:23:55;;;;;;;6.45;4.10;;;12.00;42.00;;;;;;5009720;27;115614;-85
2023/04/12 12:26:27;;;;;;;5.65;3.53;;;12.00;41.70;;;;;;5033658;27;114556;-85
2023/04/12 12:28:56;;;;;;;5.15;3.42;;;12.00;41.60;;;;;;5048828;27;115391;-84
2023/04/12 12:31:27;;;;;;;6.30;3.58;;;12.10;42.00;;;;;;5032174;27;114739;-84
2023/04/12 12:33:55;;;;;;;8.13;3.60;;;12.10;42.00;;;;;;5049365;27;114583;-84
2023/04/12 12:36:33;;;;;;;5.35;3.05;;;12.20;41.20;;;;;;5049883;27;114421;-85
2023/04/12 12:39:05;;;;;;;5.05;2.30;;;12.20;41.00;;;;;;5031402;27;116587;-85
2023/04/12 12:41:33;;;;;;;6.25;2.83;;;12.20;40.60;;;;;;5082550;27;114821;-85
2023/04/12 12:44:01;;;;;;;7.72;2.63;;;12.20;40.30;;;;;;5032908;27;114603;-85
2023/04/12 12:46:29;;;;;;;5.88;2.80;;;12.20;40.40;;;;;;5066356;27;114496;-86
2023/04/12 12:49:17;;;;;;;4.50;3.00;;;12.30;40.70;;;;;;5051202;27;117474;-85
2023/04/12 12:51:45;;;;;;;7.03;3.20;;;12.30;40.60;;;;;;5034840;27;116089;-86
2023/04/12 12:54:12;;;;;;;5.90;2.90;;;12.40;40.40;;;;;;5052303;27;114381;-85
2023/04/12 12:56:41;;;;;;;5.38;3.30;;;12.50;40.60;;;;;;5036504;27;114723;-84
2023/04/12 12:59:08;;;;;;;6.72;3.30;;;12.50;40.20;;;;;;5051442;27;118789;-83
2023/04/12 13:01:35;;;;;;;5.68;3.00;;;12.50;40.00;;;;;;5068874;27;114585;-86